createdAt,value
2022-12-08T00:01:35.236Z,17.75
2022-12-08T00:04:57.414Z,10.68
2022-12-08T00:08:17.898Z,7.30
2022-12-08T00:11:27.850Z,8.68
2022-12-08T00:14:30.834Z,6.40
2022-12-08T00:17:32.743Z,6.82
2022-12-08T00:20:34.889Z,5.95
2022-12-08T00:23:36.872Z,8.10
2022-12-08T00:26:38.831Z,10.73
2022-12-08T00:29:40.965Z,11.32
2022-12-08T00:32:42.879Z,8.73
2022-12-08T00:35:44.885Z,7.70
2022-12-08T00:38:48.543Z,11.95
2022-12-08T00:42:09.221Z,6.25
2022-12-08T00:45:11.756Z,6.03
2022-12-08T00:48:13.585Z,7.70
2022-12-08T00:51:15.762Z,8.43
2022-12-08T00:54:18.331Z,7.85
2022-12-08T00:57:20.109Z,8.23
2022-12-08T01:00:22.347Z,5.68
2022-12-08T01:03:25.661Z,4.70
2022-12-08T01:06:27.799Z,8.05
2022-12-08T01:09:29.576Z,6.22
2022-12-08T01:12:31.397Z,9.32
2022-12-08T01:15:33.635Z,22.08
2022-12-08T01:18:37.028Z,8.20
2022-12-08T01:21:41.700Z,6.13
2022-12-08T01:24:43.453Z,6.88
2022-12-08T01:27:45.357Z,7.00
2022-12-08T01:30:47.208Z,9.02
2022-12-08T01:33:49.854Z,11.98
2022-12-08T01:36:51.824Z,15.23
2022-12-08T01:39:53.630Z,8.88
2022-12-08T01:42:55.501Z,9.23
2022-12-08T01:45:57.804Z,8.15
2022-12-08T01:49:07.424Z,8.98
2022-12-08T01:52:25.176Z,5.22
2022-12-08T01:55:31.854Z,7.28
2022-12-08T01:58:40.493Z,4.45
2022-12-08T02:01:42.742Z,4.90
2022-12-08T02:04:45.151Z,8.93
2022-12-08T02:07:49.355Z,5.75
2022-12-08T02:10:55.420Z,6.57
2022-12-08T02:13:59.556Z,4.60
2022-12-08T02:17:43.501Z,6.55
2022-12-08T02:21:19.658Z,9.02
2022-12-08T02:24:37.647Z,8.70
2022-12-08T02:28:03.710Z,7.82
2022-12-08T02:31:15.832Z,6.15
2022-12-08T02:34:27.729Z,6.25
2022-12-08T02:37:36.941Z,4.70
2022-12-08T02:41:15.139Z,4.88
2022-12-08T02:44:32.967Z,4.90
2022-12-08T02:47:36.006Z,8.38
2022-12-08T02:50:38.569Z,6.65
2022-12-08T02:53:41.767Z,8.77
2022-12-08T02:56:56.848Z,7.40
2022-12-08T03:00:09.536Z,6.22
2022-12-08T03:03:24.401Z,7.47
2022-12-08T03:06:53.045Z,4.47
2022-12-08T03:10:01.536Z,5.40
2022-12-08T03:13:16.537Z,4.22
2022-12-08T03:16:27.041Z,5.50
2022-12-08T03:19:35.126Z,5.72
2022-12-08T03:22:39.337Z,6.43
2022-12-08T03:25:50.375Z,6.57
2022-12-08T03:28:53.280Z,7.20
2022-12-08T03:31:59.117Z,8.65
2022-12-08T03:35:08.795Z,4.93
2022-12-08T03:38:15.290Z,8.15
2022-12-08T03:41:23.221Z,6.22
2022-12-08T03:44:35.176Z,8.18
2022-12-08T03:47:38.525Z,6.72
2022-12-08T03:50:41.081Z,4.43
2022-12-08T03:53:46.909Z,6.03
2022-12-08T03:56:52.940Z,7.95
2022-12-08T03:59:55.649Z,7.07
2022-12-08T04:02:58.608Z,4.93
2022-12-08T04:06:01.230Z,5.10
2022-12-08T04:09:07.045Z,8.05
2022-12-08T04:12:10.072Z,5.38
2022-12-08T04:15:12.652Z,10.15
2022-12-08T04:18:16.029Z,5.63
2022-12-08T04:21:27.574Z,7.20
2022-12-08T04:24:30.288Z,7.18
2022-12-08T04:27:33.031Z,6.82
2022-12-08T04:30:35.947Z,7.20
2022-12-08T04:33:38.946Z,5.45
2022-12-08T04:36:41.463Z,5.53
2022-12-08T04:39:44.023Z,8.45
2022-12-08T04:42:49.850Z,7.68
2022-12-08T04:45:52.299Z,6.93
2022-12-08T04:48:58.257Z,7.60
2022-12-08T04:52:05.166Z,6.78
2022-12-08T04:55:08.010Z,7.95
2022-12-08T04:58:15.114Z,7.22
2022-12-08T05:01:17.708Z,8.23
2022-12-08T05:04:23.234Z,7.50
2022-12-08T05:07:25.906Z,8.68
2022-12-08T05:10:31.681Z,7.35
2022-12-08T05:13:34.181Z,8.80
2022-12-08T05:16:38.469Z,7.15
2022-12-08T05:19:41.020Z,7.90
2022-12-08T05:22:46.289Z,8.02
2022-12-08T05:25:51.147Z,8.65
2022-12-08T05:28:54.010Z,5.22
2022-12-08T05:31:56.809Z,4.32
2022-12-08T05:35:00.419Z,5.80
2022-12-08T05:38:05.778Z,6.10
2022-12-08T05:41:13.245Z,6.63
2022-12-08T05:44:15.688Z,6.90
2022-12-08T05:47:20.733Z,8.90
2022-12-08T05:50:23.231Z,7.82
2022-12-08T05:53:26.006Z,7.65
2022-12-08T05:56:28.415Z,10.55
2022-12-08T05:59:30.998Z,10.32
2022-12-08T06:02:34.740Z,8.05
2022-12-08T06:05:37.736Z,6.53
2022-12-08T06:08:40.806Z,6.80
2022-12-08T06:11:44.090Z,8.57
2022-12-08T06:14:46.954Z,8.25
2022-12-08T06:17:51.443Z,6.78
2022-12-08T06:21:05.463Z,4.90
2022-12-08T06:24:08.692Z,8.93
2022-12-08T06:27:11.020Z,6.55
2022-12-08T06:30:14.392Z,6.88
2022-12-08T06:33:17.003Z,10.35
2022-12-08T06:36:21.584Z,8.10
2022-12-08T06:39:24.127Z,20.52
2022-12-08T06:42:47.339Z,17.08
2022-12-08T06:45:50.060Z,20.92
2022-12-08T06:48:52.835Z,19.17
2022-12-08T06:51:55.530Z,18.00
2022-12-08T06:54:59.632Z,13.73
2022-12-08T06:58:02.667Z,13.63
2022-12-08T07:01:10.327Z,14.85
2022-12-08T07:04:13.409Z,14.80
2022-12-08T07:07:16.038Z,16.50
2022-12-08T07:10:18.494Z,15.88
2022-12-08T07:13:21.139Z,23.77
2022-12-08T07:16:24.035Z,24.80
2022-12-08T07:19:27.007Z,16.13
2022-12-08T07:22:31.975Z,17.08
2022-12-08T07:25:34.392Z,18.88
2022-12-08T07:28:38.375Z,20.90
2022-12-08T07:31:40.840Z,14.73
2022-12-08T07:34:45.453Z,19.83
2022-12-08T07:37:52.713Z,56.33
2022-12-08T07:40:56.213Z,35.60
2022-12-08T07:43:59.098Z,17.98
2022-12-08T07:47:02.697Z,13.70
2022-12-08T07:50:05.816Z,85.60
2022-12-08T07:53:10.101Z,42.63
2022-12-08T07:56:13.611Z,24.75
2022-12-08T07:59:16.007Z,99.32
2022-12-08T08:02:25.194Z,90.00
2022-12-08T08:05:27.761Z,71.70
2022-12-08T08:08:29.996Z,118.50
2022-12-08T08:11:34.482Z,50.25
2022-12-08T08:14:36.583Z,30.90
2022-12-08T08:17:40.473Z,16.23
2022-12-08T08:20:42.742Z,15.70
2022-12-08T08:23:45.053Z,12.55
2022-12-08T08:26:47.258Z,8.68
2022-12-08T08:29:49.501Z,8.63
2022-12-08T08:32:53.170Z,12.57
2022-12-08T08:35:55.807Z,10.57
2022-12-08T08:38:58.313Z,9.02
2022-12-08T08:42:00.365Z,13.07
2022-12-08T08:45:02.498Z,13.00
2022-12-08T08:48:05.311Z,10.82
2022-12-08T08:51:12.722Z,11.73
2022-12-08T08:57:23.660Z,11.20
2022-12-08T09:00:28.050Z,12.30
2022-12-08T09:03:30.806Z,16.67
2022-12-08T09:06:33.307Z,20.30
2022-12-08T09:09:35.656Z,12.27
2022-12-08T09:12:38.704Z,12.35
2022-12-08T09:15:40.946Z,13.50
2022-12-08T09:18:43.178Z,12.82
2022-12-08T09:21:45.873Z,11.55
2022-12-08T09:24:48.309Z,19.48
2022-12-08T09:27:52.924Z,11.48
2022-12-08T09:30:55.049Z,14.63
2022-12-08T09:33:57.858Z,19.60
2022-12-08T09:36:59.841Z,15.93
2022-12-08T09:40:02.467Z,10.23
2022-12-08T09:43:17.908Z,7.80
2022-12-08T09:46:20.609Z,8.32
2022-12-08T09:49:35.821Z,11.23
2022-12-08T09:53:11.652Z,13.45
2022-12-08T09:56:17.400Z,10.32
2022-12-08T09:59:34.744Z,16.05
2022-12-08T10:02:36.701Z,14.18
2022-12-08T10:05:43.545Z,13.00
2022-12-08T10:08:55.428Z,9.55
2022-12-08T10:11:57.249Z,10.68
2022-12-08T10:15:18.921Z,13.98
2022-12-08T10:18:27.035Z,16.50
2022-12-08T10:21:30.757Z,12.77
2022-12-08T10:24:37.813Z,17.73
2022-12-08T10:27:39.829Z,7.68
2022-12-08T10:30:42.623Z,9.13
2022-12-08T10:33:48.608Z,13.88
2022-12-08T10:36:57.834Z,10.25
2022-12-08T10:40:04.148Z,10.00
2022-12-08T10:43:08.469Z,15.95
2022-12-08T10:46:17.191Z,8.70
2022-12-08T10:49:27.662Z,10.85
2022-12-08T10:52:30.571Z,8.65
2022-12-08T10:55:47.470Z,8.90
2022-12-08T10:58:49.800Z,9.98
2022-12-08T11:01:54.086Z,8.43
2022-12-08T11:05:00.431Z,12.90
2022-12-08T11:08:04.016Z,10.73
2022-12-08T11:11:06.236Z,12.45
2022-12-08T11:14:09.174Z,14.48
2022-12-08T11:17:15.093Z,10.65
2022-12-08T11:20:23.184Z,9.30
2022-12-08T11:23:29.450Z,10.88
2022-12-08T11:26:33.244Z,10.83
2022-12-08T11:29:35.997Z,10.70
2022-12-08T11:32:41.592Z,7.07
2022-12-08T11:35:46.670Z,8.25
2022-12-08T11:38:51.406Z,11.15
2022-12-08T11:41:54.369Z,8.15
2022-12-08T11:45:22.922Z,8.30
2022-12-08T11:48:48.576Z,12.95
2022-12-08T11:51:57.921Z,9.48
2022-12-08T11:55:14.577Z,9.65
2022-12-08T11:58:27.494Z,7.65
2022-12-08T12:01:29.740Z,13.15
2022-12-08T12:06:05.293Z,10.85
2022-12-08T12:09:30.346Z,11.38
2022-12-08T12:12:39.956Z,7.45
2022-12-08T12:16:04.005Z,9.27
2022-12-08T12:19:12.629Z,7.80
2022-12-08T12:22:21.317Z,9.60
2022-12-08T12:25:26.361Z,8.93
2022-12-08T12:28:31.863Z,8.52
2022-12-08T12:31:37.671Z,7.93
2022-12-08T12:34:52.488Z,6.20
2022-12-08T12:37:59.810Z,11.73
2022-12-08T12:44:13.931Z,7.00
2022-12-08T12:47:44.764Z,10.02
2022-12-08T12:50:49.849Z,6.35
2022-12-08T12:53:52.628Z,8.32
2022-12-08T12:57:13.942Z,9.93
2022-12-08T13:00:34.753Z,7.30
2022-12-08T13:03:42.999Z,6.18
2022-12-08T13:06:48.813Z,9.52
2022-12-08T13:09:58.259Z,5.03
2022-12-08T13:13:13.097Z,7.50
2022-12-08T13:16:20.280Z,6.43
2022-12-08T13:19:22.738Z,10.38
2022-12-08T13:22:46.650Z,5.70
2022-12-08T13:25:51.660Z,8.30
2022-12-08T13:29:01.301Z,8.48
2022-12-08T13:32:05.663Z,4.72
2022-12-08T13:35:12.063Z,7.60
2022-12-08T13:38:18.435Z,8.83
2022-12-08T13:41:23.783Z,5.80
2022-12-08T13:54:35.401Z,6.93
2022-12-08T13:59:30.954Z,10.35
2022-12-08T14:02:47.841Z,10.02
2022-12-08T14:06:20.024Z,15.65
2022-12-08T14:09:19.096Z,11.23
2022-12-08T14:12:27.409Z,15.23
2022-12-08T14:15:37.618Z,11.32
2022-12-08T14:18:40.510Z,7.07
2022-12-08T14:21:56.906Z,14.48
2022-12-08T14:24:59.257Z,13.75
2022-12-08T14:28:04.642Z,7.18
2022-12-08T14:31:07.506Z,11.55
2022-12-08T14:34:11.625Z,10.30
2022-12-08T14:37:15.507Z,8.18
2022-12-08T14:40:25.219Z,7.15
2022-12-08T14:43:31.722Z,6.18
2022-12-08T14:46:33.929Z,9.60
2022-12-08T14:49:38.780Z,8.43
2022-12-08T14:52:43.956Z,8.43
2022-12-08T14:55:48.463Z,7.20
2022-12-08T14:59:03.531Z,7.00
2022-12-08T15:02:24.574Z,7.18
2022-12-08T15:05:29.979Z,6.90
2022-12-08T15:08:33.433Z,6.28
2022-12-08T15:11:35.956Z,7.03
2022-12-08T15:14:41.514Z,6.72
2022-12-08T15:17:48.777Z,9.23
2022-12-08T15:23:55.698Z,5.40
2022-12-08T15:26:59.304Z,8.27
2022-12-08T15:30:04.836Z,6.53
2022-12-08T15:33:07.746Z,4.70
2022-12-08T15:36:10.509Z,7.30
2022-12-08T15:39:36.737Z,4.90
2022-12-08T15:42:38.689Z,6.65
2022-12-08T15:45:48.103Z,6.00
2022-12-08T15:49:00.052Z,7.22
2022-12-08T15:52:11.098Z,7.47
2022-12-08T15:55:20.022Z,10.40
2022-12-08T15:58:52.852Z,14.35
2022-12-08T16:01:46.876Z,4.32
2022-12-08T16:08:44.619Z,4.63
2022-12-08T16:12:11.323Z,4.03
2022-12-08T16:18:38.487Z,2.97
2022-12-08T16:22:17.719Z,3.40
2022-12-08T16:25:17.637Z,3.90
2022-12-08T16:28:53.009Z,2.33
2022-12-08T16:31:43.796Z,4.43
2022-12-08T16:34:46.620Z,1.48
2022-12-08T16:37:49.037Z,1.45
2022-12-08T16:41:10.274Z,2.47
2022-12-08T16:44:13.428Z,2.78
2022-12-08T16:47:15.440Z,1.95
2022-12-08T16:50:23.921Z,3.80
2022-12-08T16:53:26.352Z,3.70
2022-12-08T16:56:33.205Z,4.38
2022-12-08T16:59:38.360Z,2.00
2022-12-08T17:02:40.695Z,2.55
2022-12-08T17:05:44.111Z,2.72
2022-12-08T17:08:46.153Z,2.63
2022-12-08T17:11:48.877Z,3.10
2022-12-08T17:14:51.237Z,2.65
2022-12-08T17:17:54.457Z,4.15
2022-12-08T17:20:57.232Z,3.10
2022-12-08T17:23:59.358Z,3.45
2022-12-08T17:27:05.310Z,2.65
2022-12-08T17:30:09.856Z,3.15
2022-12-08T17:33:12.061Z,2.05
2022-12-08T17:36:16.557Z,1.80
2022-12-08T17:39:19.359Z,2.22
2022-12-08T17:42:26.270Z,4.15
2022-12-08T17:45:28.373Z,1.55
2022-12-08T17:48:30.883Z,1.88
2022-12-08T17:51:32.950Z,3.15
2022-12-08T17:54:36.765Z,5.93
2022-12-08T17:57:39.261Z,2.83
2022-12-08T18:00:41.421Z,6.65
2022-12-08T18:03:43.564Z,3.13
2022-12-08T18:06:46.010Z,3.30
2022-12-08T18:09:48.253Z,4.93
2022-12-08T18:12:51.547Z,4.75
2022-12-08T18:15:53.941Z,3.05
2022-12-08T18:18:56.227Z,3.25
2022-12-08T18:22:01.347Z,6.07
2022-12-08T18:25:04.228Z,6.32
2022-12-08T18:28:07.526Z,13.85
2022-12-08T18:31:11.959Z,11.35
2022-12-08T18:34:14.719Z,9.40
2022-12-08T18:37:17.342Z,7.72
2022-12-08T18:40:19.723Z,10.23
2022-12-08T18:43:22.132Z,10.25
2022-12-08T18:46:25.297Z,10.20
2022-12-08T18:49:27.770Z,8.68
2022-12-08T18:52:32.370Z,11.25
2022-12-08T18:55:35.321Z,10.30
2022-12-08T18:58:38.523Z,14.68
2022-12-08T19:01:41.955Z,6.95
2022-12-08T19:04:45.071Z,11.20
2022-12-08T19:07:49.889Z,10.93
2022-12-08T19:10:53.437Z,13.48
2022-12-08T19:13:58.013Z,10.38
2022-12-08T19:17:01.848Z,7.13
2022-12-08T19:20:07.970Z,7.63
2022-12-08T19:23:21.626Z,9.45
2022-12-08T19:26:24.142Z,10.25
2022-12-08T19:29:29.788Z,12.15
2022-12-08T19:32:32.729Z,13.80
2022-12-08T19:35:38.197Z,19.33
2022-12-08T19:38:59.635Z,14.63
2022-12-08T19:42:20.341Z,18.23
2022-12-08T19:45:25.955Z,15.48
2022-12-08T19:48:29.971Z,11.80
2022-12-08T19:51:32.731Z,7.32
2022-12-08T19:54:35.209Z,8.05
2022-12-08T19:57:38.191Z,10.35
2022-12-08T20:00:40.902Z,11.60
2022-12-08T20:03:42.934Z,14.82
2022-12-08T20:06:46.933Z,19.92
2022-12-08T20:09:49.723Z,20.00
2022-12-08T20:12:52.397Z,14.57
2022-12-08T20:15:55.550Z,20.90
2022-12-08T20:18:58.003Z,5.13
2022-12-08T20:22:00.216Z,2.97
2022-12-08T20:25:02.946Z,9.50
2022-12-08T20:28:05.524Z,15.77
2022-12-08T20:31:07.820Z,8.50
2022-12-08T20:34:18.036Z,7.85
2022-12-08T20:37:20.265Z,8.10
2022-12-08T20:40:25.372Z,2.80
2022-12-08T20:43:27.587Z,2.20
2022-12-08T20:46:29.956Z,3.15
2022-12-08T20:49:34.768Z,3.05
2022-12-08T20:52:40.927Z,3.85
2022-12-08T20:55:43.434Z,1.77
2022-12-08T20:58:46.742Z,2.90
2022-12-08T21:01:49.420Z,2.97
2022-12-08T21:04:52.014Z,2.05
2022-12-08T21:07:54.495Z,4.40
2022-12-08T21:10:57.691Z,3.67
2022-12-08T21:14:00.049Z,3.15
2022-12-08T21:17:02.325Z,3.55
2022-12-08T21:20:05.697Z,2.72
2022-12-08T21:23:08.044Z,2.05
2022-12-08T21:26:20.808Z,3.67
2022-12-08T21:29:23.415Z,2.97
2022-12-08T21:32:30.143Z,5.90
2022-12-08T21:38:37.516Z,5.28
2022-12-08T21:41:58.705Z,6.88
2022-12-08T21:45:01.313Z,4.63
2022-12-08T21:48:11.057Z,3.55
2022-12-08T21:51:13.654Z,3.05
2022-12-08T21:54:19.056Z,1.95
2022-12-08T21:57:21.641Z,3.20
2022-12-08T22:00:24.246Z,1.63
2022-12-08T22:03:28.537Z,2.10
2022-12-08T22:06:31.292Z,6.05
2022-12-08T22:09:33.412Z,8.02
2022-12-08T22:12:37.172Z,12.57
2022-12-08T22:15:39.613Z,13.73
2022-12-08T22:18:42.617Z,9.75
2022-12-08T22:21:45.073Z,11.60
2022-12-08T22:24:47.212Z,12.10
2022-12-08T22:27:49.740Z,7.32
2022-12-08T22:30:51.885Z,7.72
2022-12-08T22:33:54.178Z,6.10
2022-12-08T22:36:56.661Z,5.50
2022-12-08T22:39:59.183Z,4.90
2022-12-08T22:43:01.705Z,5.72
2022-12-08T22:46:12.821Z,6.65
2022-12-08T22:49:15.093Z,5.47
2022-12-08T22:52:17.168Z,4.03
2022-12-08T22:55:19.185Z,3.65
2022-12-08T22:58:21.386Z,7.53
2022-12-08T23:01:31.461Z,11.35
2022-12-08T23:04:33.794Z,12.68
2022-12-08T23:07:36.018Z,10.95
2022-12-08T23:10:40.017Z,17.50
2022-12-08T23:13:48.530Z,19.33
2022-12-08T23:16:51.088Z,11.55
2022-12-08T23:19:53.747Z,17.77
2022-12-08T23:22:55.886Z,8.45
2022-12-08T23:25:58.345Z,6.70
2022-12-08T23:29:00.839Z,7.47
2022-12-08T23:32:03.120Z,6.35
2022-12-08T23:35:06.053Z,10.07
2022-12-08T23:38:10.345Z,10.55
2022-12-08T23:41:14.760Z,7.13
2022-12-08T23:44:17.275Z,4.90
2022-12-08T23:47:22.576Z,4.68
2022-12-08T23:50:24.910Z,6.00
2022-12-08T23:53:28.502Z,5.32
2022-12-08T23:56:30.953Z,8.07
2022-12-08T23:59:33.718Z,5.57
